Time;durP1;ratioP1;P1;durP2;ratioP2;P2;SDS_P1;SDS_P2;PMS_P1;PMS_P2;Temp;Humidity;BMP_temperature;BMP_pressure;BME280_temperature;BME280_humidity;BME280_pressure;Samples;Min_cycle;Max_cycle;Signal;HPM_P1;HPM_P2
2021/12/20 00:02:06;;;;;;;2.38;0.45;;;0.30;99.90;;;-1.93;100.00;101114.97;4945470;28;22790;-79
2021/12/20 00:04:32;;;;;;;1.13;0.15;;;0.10;99.90;;;-1.96;100.00;101109.78;4894906;28;20058;-82
2021/12/20 00:07:03;;;;;;;2.85;0.57;;;0.10;99.90;;;-2.00;100.00;101120.06;4903815;28;20117;-78
2021/12/20 00:09:29;;;;;;;2.88;0.40;;;0.00;99.90;;;-1.99;100.00;101126.94;4883491;28;20063;-80
2021/12/20 00:11:55;;;;;;;1.88;0.10;;;-0.10;99.90;;;-2.24;100.00;101115.50;4916548;28;20069;-79
2021/12/20 00:14:21;;;;;;;2.17;0.40;;;-0.20;99.90;;;-2.31;100.00;101106.78;4908762;28;20061;-80
2021/12/20 00:16:47;;;;;;;3.30;0.30;;;-0.30;99.90;;;-2.43;100.00;101120.41;4895804;28;20023;-80
2021/12/20 00:19:23;;;;;;;1.45;0.20;;;-0.40;99.90;;;-2.39;100.00;101140.22;4941176;28;20034;-81
2021/12/20 00:21:49;;;;;;;;;;;-0.40;99.90;;;-2.41;100.00;101138.50;4905147;28;20039;-78
2021/12/20 00:24:17;;;;;;;1.02;0.43;;;-0.40;99.90;;;-2.43;100.00;101135.88;4904835;28;19942;-78
2021/12/20 00:26:43;;;;;;;5.10;0.40;;;-0.50;99.90;;;-2.45;100.00;101157.34;4894384;28;20035;-81
2021/12/20 00:29:11;;;;;;;4.97;0.47;;;-0.50;99.90;;;-2.53;100.00;101146.91;4895260;28;20038;-79
2021/12/20 00:31:37;;;;;;;1.75;0.20;;;-0.50;99.90;;;-2.55;100.00;101153.75;4889847;28;20849;-79
2021/12/20 00:34:03;;;;;;;3.75;0.10;;;;;;;-2.60;100.00;101158.00;4907656;28;20046;-81
2021/12/20 00:36:30;;;;;;;0.70;0.28;;;-0.60;99.90;;;-2.56;100.00;101158.06;4896880;28;20044;-81
2021/12/20 00:41:43;;;;;;;2.70;0.40;;;-0.20;99.90;;;-1.90;100.00;101196.72;4882280;28;20033;-80
2021/12/20 00:44:09;;;;;;;2.80;0.32;;;0.20;99.90;;;-1.62;100.00;101202.22;4878853;28;20434;-79
2021/12/20 00:46:35;;;;;;;15.18;0.70;;;0.30;99.90;;;-1.52;100.00;101211.81;4923974;28;20054;-79
2021/12/20 00:49:01;;;;;;;3.28;0.40;;;0.40;99.90;;;-1.59;100.00;101210.88;4898949;28;20050;-77
2021/12/20 00:51:27;;;;;;;0.98;0.20;;;0.30;99.90;;;-1.68;100.00;101201.31;4951883;28;20414;-78
2021/12/20 00:53:53;;;;;;;2.85;0.52;;;0.30;99.90;;;-1.70;100.00;101194.41;4941785;28;20046;-76
2021/12/20 00:56:23;;;;;;;0.52;0.13;;;0.30;99.90;;;-1.82;100.00;101182.19;4922789;28;20035;-79
2021/12/20 00:58:49;;;;;;;2.40;0.50;;;0.20;99.90;;;-1.76;100.00;101184.84;4924718;28;20051;-81
2021/12/20 01:01:15;;;;;;;4.05;0.60;;;0.20;99.90;;;-1.60;100.00;101188.47;4895150;28;20422;-81
2021/12/20 01:03:41;;;;;;;4.85;0.65;;;0.40;99.90;;;-1.41;100.00;101205.03;4896163;28;20125;-80
2021/12/20 01:06:08;;;;;;;3.38;0.32;;;0.50;99.90;;;-1.33;100.00;101216.31;4859725;28;20130;-80
2021/12/20 01:08:38;;;;;;;5.97;0.30;;;0.60;99.90;;;-1.32;100.00;101199.97;4859793;28;20039;-81
2021/12/20 01:11:05;;;;;;;4.57;0.68;;;;;;;-1.30;100.00;101212.88;4888463;28;20034;-80
2021/12/20 01:13:38;;;;;;;7.22;0.60;;;0.60;99.90;;;-1.34;100.00;101203.38;4905538;28;20487;-80
2021/12/20 01:16:11;;;;;;;4.25;0.90;;;0.60;99.90;;;-1.38;100.00;101206.75;4901679;28;20027;-79
2021/12/20 01:18:37;;;;;;;3.50;0.57;;;0.60;99.90;;;-1.45;100.00;101205.84;4934918;28;20046;-82
2021/12/20 01:21:03;;;;;;;2.70;0.32;;;0.70;99.90;;;-1.54;100.00;101190.25;4891226;28;20042;-81
2021/12/20 01:23:39;;;;;;;7.10;0.60;;;0.50;99.90;;;-1.46;100.00;101202.41;4891495;28;20026;-80
2021/12/20 01:26:05;;;;;;;;;;;0.40;99.90;;;-1.58;100.00;101197.09;4914951;28;20039;-78
2021/12/20 01:28:31;;;;;;;1.65;0.32;;;0.50;99.90;;;-1.61;100.00;101194.50;4872719;28;19942;-80
2021/12/20 01:31:04;;;;;;;3.83;0.47;;;0.40;99.90;;;-1.59;100.00;101197.97;4874202;28;20042;-78
2021/12/20 01:33:30;;;;;;;9.15;0.45;;;0.40;99.90;;;-1.56;100.00;101195.41;4892072;28;20113;-80
2021/12/20 01:35:58;;;;;;;8.85;0.95;;;;;;;-1.45;100.00;101198.97;4867714;28;20049;-82
2021/12/20 01:38:27;;;;;;;3.40;0.43;;;0.50;99.90;;;-1.42;100.00;101192.97;4884503;28;20117;-82
2021/12/20 01:41:02;;;;;;;2.88;0.68;;;;;;;-1.50;100.00;101192.88;4860121;28;20039;-82
2021/12/20 01:43:28;;;;;;;0.68;0.20;;;0.50;99.90;;;-1.54;100.00;101185.94;4910565;28;20030;-79
2021/12/20 01:45:54;;;;;;;2.88;0.35;;;0.50;99.90;;;-1.47;100.00;101182.59;4880689;28;20094;-79
2021/12/20 01:48:23;;;;;;;3.22;0.38;;;;;;;-1.08;100.00;101212.25;4925029;28;20043;-79
2021/12/20 01:53:26;;;;;;;0.45;0.20;;;1.10;99.90;;;-0.78;100.00;101204.72;4914735;28;20022;-81
2021/12/20 01:55:56;;;;;;;2.63;0.28;;;1.10;99.90;;;-0.79;100.00;101201.28;4902260;28;20027;-80
2021/12/20 01:58:27;;;;;;;4.80;0.35;;;1.10;99.90;;;-0.78;100.00;101197.81;4941028;28;20028;-80
2021/12/20 02:03:55;;;;;;;0.70;0.28;;;1.20;99.90;;;-0.70;100.00;101197.88;4917034;28;20040;-81
2021/12/20 02:08:53;;;;;;;2.63;0.63;;;1.20;99.90;;;-0.70;100.00;101187.53;4931436;28;20027;-83
2021/12/20 02:11:31;;;;;;;1.38;0.20;;;1.20;99.90;;;-0.68;100.00;101188.41;4872585;28;20095;-81
2021/12/20 02:14:00;;;;;;;0.05;0.00;;;1.30;99.90;;;-0.62;100.00;101189.34;4916015;28;20374;-82
2021/12/20 02:16:26;;;;;;;1.75;0.22;;;1.30;99.90;;;-0.46;100.00;101197.19;4889502;28;20031;-82
2021/12/20 02:18:52;;;;;;;2.42;0.15;;;;;;;-0.39;100.00;101187.72;4922234;28;20027;-81
2021/12/20 02:21:18;;;;;;;1.33;0.30;;;1.50;99.90;;;-0.23;100.00;101193.00;4919566;28;20058;-82
2021/12/20 02:23:51;;;;;;;0.52;0.10;;;1.60;99.90;;;-0.22;100.00;101186.09;4880243;28;20102;-80
2021/12/20 02:26:19;;;;;;;2.72;0.25;;;1.70;99.90;;;-0.14;100.00;101199.09;4926408;28;20079;-79
2021/12/20 02:28:48;;;;;;;4.03;0.20;;;1.70;99.90;;;-0.09;100.00;101202.56;4944197;28;20494;-79
2021/12/20 02:37:04;;;;;;;1.70;0.20;;;1.80;99.90;;;-0.03;100.00;101205.19;4931586;28;20922;-79
2021/12/20 02:39:31;;;;;;;2.92;0.50;;;1.80;99.90;;;-0.13;100.00;101188.75;4914681;28;20039;-79
2021/12/20 02:42:00;;;;;;;2.00;0.28;;;1.70;99.90;;;-0.14;100.00;101188.75;4917423;28;20038;-80
2021/12/20 02:44:28;;;;;;;0.55;0.20;;;1.70;99.90;;;-0.29;100.00;101180.03;4973329;28;20059;-80
2021/12/20 02:49:26;;;;;;;3.10;0.75;;;1.70;99.90;;;-0.18;100.00;101187.84;4914380;28;20194;-79
2021/12/20 02:52:01;;;;;;;2.65;0.30;;;1.70;99.90;;;-0.06;100.00;101192.25;4911082;28;20531;-79
2021/12/20 02:54:28;;;;;;;0.13;0.05;;;1.80;99.90;;;-0.01;100.00;101196.56;4921233;28;20114;-79
2021/12/20 02:56:54;;;;;;;1.05;0.20;;;1.80;99.90;;;-0.04;100.00;101196.56;4962473;28;20520;-80
2021/12/20 02:59:21;;;;;;;2.05;0.30;;;1.80;99.90;;;-0.08;100.00;101194.81;4940430;28;20038;-80
2021/12/20 03:01:57;;;;;;;1.45;0.10;;;1.70;99.90;;;-0.14;100.00;101184.44;4904759;28;20085;-80
2021/12/20 03:04:23;;;;;;;0.93;0.40;;;1.80;99.90;;;-0.12;100.00;101190.47;4887369;28;20049;-80
2021/12/20 03:06:56;;;;;;;1.48;0.17;;;1.80;99.90;;;-0.19;100.00;101186.13;4948433;28;20041;-80
2021/12/20 03:09:30;;;;;;;1.35;0.08;;;1.70;99.90;;;-0.19;100.00;101193.91;4925234;28;20024;-79
2021/12/20 03:11:59;;;;;;;3.60;0.30;;;;;;;-0.21;100.00;101198.19;4919644;28;20054;-80
2021/12/20 03:14:32;;;;;;;4.18;0.30;;;1.70;99.90;;;-0.19;100.00;101198.19;4955220;28;20028;-79
2021/12/20 03:17:00;;;;;;;1.20;0.40;;;1.70;99.90;;;-0.12;100.00;101213.78;4919072;28;20213;-80
2021/12/20 03:19:28;;;;;;;0.08;0.00;;;1.70;99.90;;;-0.22;100.00;101206.81;4938363;28;20047;-79
2021/12/20 03:21:55;;;;;;;3.92;0.10;;;1.70;99.90;;;-0.29;100.00;101205.06;4949876;28;20074;-78
2021/12/20 03:24:23;;;;;;;0.40;0.13;;;1.60;99.90;;;-0.34;100.00;101206.75;4958223;28;21617;-79
2021/12/20 03:26:50;;;;;;;7.82;0.57;;;1.50;99.90;;;-0.43;100.00;101203.25;4941231;28;20135;-78
2021/12/20 03:29:16;;;;;;;1.45;0.30;;;1.50;99.90;;;-0.48;100.00;101206.66;4953888;28;20094;-79
2021/12/20 03:31:42;;;;;;;4.32;0.40;;;1.40;99.90;;;-0.49;100.00;101212.69;4906716;28;20410;-79
2021/12/20 03:34:11;;;;;;;1.95;0.28;;;1.40;99.90;;;-0.44;100.00;101219.63;4939893;28;20023;-79
2021/12/20 03:36:39;;;;;;;2.58;0.15;;;1.50;99.90;;;-0.42;100.00;101224.81;4940244;28;20066;-79
2021/12/20 03:39:08;;;;;;;3.33;0.45;;;1.40;99.90;;;-0.55;100.00;101225.59;4953470;28;21025;-80
2021/12/20 03:41:36;;;;;;;0.98;0.13;;;1.40;99.90;;;-0.70;100.00;101214.25;4920719;28;20115;-79
2021/12/20 03:44:04;;;;;;;1.63;0.30;;;1.30;99.90;;;-0.78;100.00;101215.91;4946046;28;20026;-79
2021/12/20 03:46:30;;;;;;;0.20;0.00;;;1.20;99.90;;;-0.80;100.00;101224.53;4939873;28;20045;-79
2021/12/20 03:48:56;;;;;;;1.02;0.10;;;1.20;99.90;;;-0.74;100.00;101228.03;4942448;28;20027;-79
2021/12/20 03:51:22;;;;;;;4.65;0.30;;;1.20;99.90;;;-0.83;100.00;101217.63;4939564;28;20034;-80
2021/12/20 03:53:48;;;;;;;4.28;0.30;;;1.10;99.90;;;-0.94;100.00;101206.31;4940160;28;20044;-80
2021/12/20 03:56:14;;;;;;;0.75;0.20;;;1.10;99.90;;;-0.88;100.00;101221.91;4922832;28;20023;-79
2021/12/20 03:58:41;;;;;;;1.88;0.38;;;1.00;99.90;;;-1.02;100.00;101206.25;4937525;28;20022;-79
2021/12/20 04:01:12;;;;;;;2.72;0.22;;;0.90;99.90;;;-1.15;100.00;101220.78;4931100;28;20108;-80
2021/12/20 04:03:40;;;;;;;2.33;0.20;;;0.80;99.90;;;-1.22;100.00;101229.34;4935163;28;20051;-80
2021/12/20 04:06:10;;;;;;;0.73;0.22;;;0.80;99.90;;;-0.95;100.00;101243.34;4963070;28;20054;-79
2021/12/20 04:08:40;;;;;;;1.13;0.22;;;0.90;99.90;;;-0.89;100.00;101240.81;4902184;28;20027;-79
2021/12/20 04:11:06;;;;;;;0.40;0.20;;;1.00;99.90;;;-1.00;100.00;101235.56;4934531;28;20035;-80
2021/12/20 04:13:33;;;;;;;2.80;0.20;;;0.90;99.90;;;-1.09;100.00;101230.31;4917490;28;20035;-79
2021/12/20 04:16:00;;;;;;;3.40;0.47;;;0.80;99.90;;;-1.15;100.00;101225.94;4891570;28;20117;-79
2021/12/20 04:18:29;;;;;;;1.25;0.28;;;0.80;99.90;;;-1.14;100.00;101225.13;4892059;28;20495;-79
2021/12/20 04:20:55;;;;;;;3.08;0.10;;;0.80;99.90;;;-1.12;100.00;101244.09;4917280;28;20045;-79
2021/12/20 04:23:21;;;;;;;1.80;0.20;;;0.80;99.90;;;-1.17;100.00;101237.13;4940390;28;20031;-79
2021/12/20 04:25:47;;;;;;;0.13;0.05;;;0.70;99.90;;;-1.17;100.00;101238.00;4933942;28;20088;-79
2021/12/20 04:28:13;;;;;;;0.13;0.00;;;0.80;99.90;;;-1.12;100.00;101235.47;4917452;28;20033;-79
2021/12/20 04:30:39;;;;;;;2.10;0.45;;;0.80;99.90;;;-1.25;100.00;101239.66;4943299;28;20598;-79
2021/12/20 04:33:05;;;;;;;3.88;0.57;;;0.70;99.90;;;-1.34;100.00;101244.69;4955045;28;20040;-79
2021/12/20 04:35:34;;;;;;;2.75;0.70;;;0.70;99.90;;;-1.37;100.00;101235.22;4936592;28;20023;-79
2021/12/20 04:38:01;;;;;;;2.40;0.38;;;0.70;99.90;;;-1.32;100.00;101237.84;4903252;28;20062;-79
2021/12/20 04:40:28;;;;;;;4.88;0.13;;;0.60;99.90;;;-1.38;100.00;101242.94;4965646;28;20023;-79
2021/12/20 04:42:59;;;;;;;0.52;0.10;;;0.50;99.90;;;-1.48;100.00;101237.69;4946212;28;20019;-79
2021/12/20 04:45:29;;;;;;;6.78;0.40;;;0.50;99.90;;;-1.54;100.00;101231.59;4951205;28;20066;-79
2021/12/20 04:47:57;;;;;;;3.33;0.20;;;0.50;99.90;;;-1.43;100.00;101240.31;4956722;28;20031;-78
2021/12/20 04:50:24;;;;;;;3.10;0.22;;;0.50;99.90;;;-1.43;100.00;101247.19;4908406;28;20031;-78
2021/12/20 04:52:52;;;;;;;3.83;0.35;;;1.60;99.90;;;-1.49;100.00;101228.22;4914787;28;20047;-79
2021/12/20 04:55:18;;;;;;;1.08;0.22;;;0.50;99.90;;;-1.41;100.00;101243.78;4897266;28;20068;-79
2021/12/20 04:57:45;;;;;;;3.05;0.43;;;0.50;99.90;;;-1.48;100.00;101232.50;4949165;28;20099;-79
2021/12/20 05:00:19;;;;;;;5.55;1.02;;;0.40;99.90;;;-1.61;100.00;101230.66;4932500;28;20103;-79
2021/12/20 05:02:46;;;;;;;3.13;1.30;;;0.30;99.90;;;-1.73;100.00;101223.63;4965328;28;20395;-80
2021/12/20 05:05:11;;;;;;;2.97;1.05;;;0.20;99.90;;;-1.97;100.00;101224.19;4949191;28;20043;-79
2021/12/20 05:07:39;;;;;;;5.60;0.50;;;0.00;99.90;;;-2.16;100.00;101230.84;4947632;28;20047;-78
2021/12/20 05:10:12;;;;;;;4.72;0.68;;;-0.10;99.90;;;-2.24;100.00;101216.97;4924975;28;20110;-78
2021/12/20 05:12:39;;;;;;;3.17;0.70;;;-0.20;99.90;;;-2.40;100.00;101231.34;4940985;28;20031;-79
2021/12/20 05:15:07;;;;;;;1.42;0.60;;;-0.40;99.90;;;-2.49;100.00;101229.50;4908743;28;20033;-78
2021/12/20 05:17:35;;;;;;;2.33;0.50;;;-0.50;99.90;;;-2.54;100.00;101233.72;4919339;28;20035;-78
2021/12/20 05:20:05;;;;;;;1.80;0.40;;;-0.60;99.90;;;-2.72;100.00;101233.41;4948791;28;20027;-78
2021/12/20 05:22:32;;;;;;;8.15;0.40;;;-0.70;99.90;;;-2.83;100.00;101237.53;4941229;28;20050;-78
2021/12/20 05:24:58;;;;;;;0.50;0.20;;;-0.80;99.90;;;-2.97;100.00;101234.75;4947899;28;20520;-78
2021/12/20 05:27:23;;;;;;;1.02;0.20;;;-0.90;99.90;;;-2.99;100.00;101241.59;4942211;28;20051;-78
2021/12/20 05:29:50;;;;;;;4.28;0.38;;;;;;;-3.20;100.00;101245.50;4912378;28;20035;-78
2021/12/20 05:32:19;;;;;;;0.45;0.15;;;-1.10;99.90;;;-3.25;100.00;101247.13;4926944;28;20110;-78
2021/12/20 05:34:47;;;;;;;1.75;0.20;;;-1.20;99.90;;;-3.32;100.00;101245.31;4950644;28;20043;-79
2021/12/20 05:37:15;;;;;;;1.88;0.30;;;-1.30;99.90;;;-3.39;100.00;101236.59;4949823;28;20035;-79
2021/12/20 05:39:42;;;;;;;0.73;0.13;;;-1.30;99.90;;;-3.27;100.00;101250.53;4959644;28;20043;-77
2021/12/20 05:42:08;;;;;;;1.92;0.32;;;-1.20;99.90;;;-3.22;100.00;101257.47;4922552;28;20038;-78
2021/12/20 05:44:36;;;;;;;0.90;0.20;;;-1.10;99.90;;;-3.04;100.00;101271.56;4935274;28;20061;-77
2021/12/20 05:47:03;;;;;;;1.60;0.32;;;-1.00;99.90;;;-2.90;100.00;101272.66;4951571;28;20862;-80
2021/12/20 05:49:31;;;;;;;7.38;0.82;;;-0.90;99.90;;;-2.72;100.00;101291.03;4932108;28;20109;-77
2021/12/20 05:51:59;;;;;;;0.73;0.50;;;-0.70;99.90;;;-2.69;100.00;101244.66;4945300;28;20510;-77
2021/12/20 05:54:25;;;;;;;2.20;0.90;;;-0.70;99.90;;;-2.77;100.00;101278.88;4924314;28;20055;-80
2021/12/20 05:56:51;;;;;;;2.55;0.60;;;-0.70;99.90;;;-2.70;100.00;101283.28;4925562;28;20081;-78
2021/12/20 05:59:20;;;;;;;1.10;0.30;;;-0.70;99.90;;;-2.71;100.00;101279.00;4938272;28;20043;-78
2021/12/20 06:01:45;;;;;;;1.15;0.22;;;-0.70;99.90;;;-2.83;100.00;101282.25;4931633;28;20031;-77
2021/12/20 06:04:11;;;;;;;1.33;0.30;;;-0.80;99.90;;;-2.90;100.00;101288.13;4929803;28;20124;-77
2021/12/20 06:06:37;;;;;;;0.20;0.10;;;-0.80;99.90;;;-2.90;100.00;101280.38;4933402;28;20035;-77
2021/12/20 06:09:03;;;;;;;4.60;0.30;;;-1.00;99.90;;;-3.21;100.00;101281.56;4948072;28;20037;-77
2021/12/20 06:11:30;;;;;;;2.85;0.80;;;-1.00;99.90;;;-3.09;100.00;101294.63;4929943;28;20036;-78
2021/12/20 06:13:56;;;;;;;0.98;0.30;;;-1.20;99.90;;;-3.30;100.00;101290.84;4941250;28;20492;-78
2021/12/20 06:16:25;;;;;;;3.03;0.20;;;-1.30;99.90;;;-3.44;100.00;101289.69;4920941;28;20039;-77
2021/12/20 06:18:51;;;;;;;2.15;0.20;;;-1.30;99.90;;;-3.54;100.00;101285.22;4900492;28;20024;-77
2021/12/20 06:21:18;;;;;;;2.60;0.40;;;-1.50;99.90;;;-3.64;100.00;101289.31;4960133;28;20023;-78
2021/12/20 06:23:45;;;;;;;2.83;0.40;;;-1.60;99.90;;;-3.75;100.00;101296.81;4955242;28;20039;-77
2021/12/20 06:26:11;;;;;;;1.92;0.28;;;-1.70;99.90;;;-3.82;100.00;101276.03;4940553;28;20142;-78
2021/12/20 06:28:37;;;;;;;0.38;0.10;;;-1.80;99.90;;;-3.87;100.00;101306.81;4922883;28;20047;-78
2021/12/20 06:31:03;;;;;;;1.75;0.10;;;-1.80;99.90;;;-3.86;100.00;101308.56;4910376;28;20558;-77
2021/12/20 06:33:29;;;;;;;3.83;0.35;;;-1.80;99.90;;;-3.85;100.00;101317.16;4945273;28;20043;-77
2021/12/20 06:35:55;;;;;;;0.88;0.03;;;-1.80;99.90;;;-3.90;100.00;101318.78;4936905;28;20023;-76
2021/12/20 06:38:22;;;;;;;0.22;0.10;;;-1.80;99.90;;;-3.79;100.00;101331.03;4948404;28;20031;-76
2021/12/20 06:40:51;;;;;;;2.33;0.22;;;-1.80;99.90;;;-3.78;100.00;101331.88;4949626;28;20036;-77
2021/12/20 06:43:19;;;;;;;3.00;0.20;;;-1.80;99.90;;;-3.79;100.00;101340.47;4959526;28;20502;-77
2021/12/20 06:45:46;;;;;;;5.07;0.28;;;-1.80;99.90;;;-3.80;100.00;101344.75;4952167;28;20050;-76
2021/12/20 06:48:12;;;;;;;2.95;0.55;;;-1.80;99.90;;;-3.87;100.00;101353.13;4935290;28;20102;-78
2021/12/20 06:50:38;;;;;;;0.73;0.20;;;-1.80;99.90;;;-3.96;100.00;101353.81;4968516;28;20583;-77
2021/12/20 06:53:08;;;;;;;3.03;0.45;;;-1.90;99.90;;;-3.97;100.00;101353.78;4961810;28;20075;-76
2021/12/20 06:55:36;;;;;;;0.75;0.10;;;-1.90;99.90;;;-4.10;100.00;101350.06;4941412;28;20024;-76
2021/12/20 06:58:04;;;;;;;3.08;0.57;;;-2.00;99.90;;;-4.22;100.00;101348.06;4958712;28;20434;-76
2021/12/20 07:00:30;;;;;;;2.22;0.30;;;-2.10;99.90;;;-4.27;100.00;101359.09;4942118;28;20511;-76
2021/12/20 07:02:56;;;;;;;3.22;0.68;;;-2.20;99.90;;;-4.29;100.00;101366.75;4950461;28;20063;-77
2021/12/20 07:05:23;;;;;;;0.77;0.35;;;-2.10;99.90;;;-4.28;100.00;101363.34;4958055;28;20179;-76
2021/12/20 07:07:49;;;;;;;5.18;0.43;;;-2.10;99.90;;;-4.27;100.00;101375.38;4957037;28;20568;-77
2021/12/20 07:10:15;;;;;;;4.25;0.30;;;-2.00;99.90;;;-4.18;100.00;101380.72;4949333;28;20028;-76
2021/12/20 07:12:41;;;;;;;0.32;0.20;;;-2.00;99.90;;;-4.10;100.00;101380.94;4949844;28;20082;-76
2021/12/20 07:15:13;;;;;;;2.25;0.30;;;-2.00;99.90;;;-3.97;100.00;101406.09;4930121;28;20034;-76
2021/12/20 07:17:41;;;;;;;7.65;0.95;;;-1.80;99.90;;;-3.86;100.00;101405.50;4923421;28;20024;-77
2021/12/20 07:20:09;;;;;;;1.20;0.25;;;-1.70;99.90;;;-3.76;100.00;101418.59;4918332;28;20410;-77
2021/12/20 07:22:35;;;;;;;1.48;0.30;;;-1.60;99.90;;;-3.65;100.00;101425.69;4922060;28;20038;-77
2021/12/20 07:25:01;;;;;;;7.82;0.55;;;-1.40;99.90;;;-3.32;100.00;101431.59;4921287;28;20095;-78
2021/12/20 07:27:28;;;;;;;3.50;0.50;;;-1.20;99.90;;;-3.10;100.00;101450.06;4926961;28;20445;-77
2021/12/20 07:29:54;;;;;;;1.55;0.63;;;-1.00;99.90;;;-2.77;100.00;101462.75;4917088;28;20020;-77
2021/12/20 07:32:20;;;;;;;3.22;0.35;;;-0.70;99.90;;;-2.57;100.00;101464.84;4924594;28;20042;-76
2021/12/20 07:34:46;;;;;;;3.03;0.43;;;-0.50;99.90;;;-2.45;100.00;101465.09;4943135;28;20046;-77
2021/12/20 07:37:11;;;;;;;2.33;0.50;;;-0.40;99.90;;;-2.21;100.00;101466.38;4918470;28;20043;-77
2021/12/20 07:39:37;;;;;;;10.15;0.75;;;-0.20;99.90;;;-2.00;100.00;101474.50;4935177;28;20027;-77
2021/12/20 07:42:04;;;;;;;5.97;0.95;;;0.00;99.90;;;-1.81;100.00;101479.94;4923927;28;20046;-76
2021/12/20 07:44:30;;;;;;;1.73;0.32;;;0.20;99.90;;;-1.63;100.00;101477.66;4938128;28;20809;-77
2021/12/20 07:46:56;;;;;;;1.83;0.10;;;0.40;99.90;;;-1.36;100.00;101482.41;4956007;28;20114;-77
2021/12/20 07:49:21;;;;;;;0.50;0.08;;;0.70;99.90;;;-1.09;100.00;101483.63;4928976;28;20035;-77
2021/12/20 07:51:51;;;;;;;5.63;0.20;;;1.00;99.90;;;-0.68;100.00;101509.13;4936716;28;20035;-77
2021/12/20 07:54:18;;;;;;;6.82;0.25;;;1.30;99.90;;;-0.44;100.00;101485.25;4943966;28;20043;-78
2021/12/20 07:56:44;;;;;;;0.30;0.10;;;1.50;99.90;;;-0.27;100.00;101482.84;4949030;28;20059;-77
2021/12/20 07:59:10;;;;;;;3.67;0.15;;;1.60;99.90;;;-0.17;100.00;101473.44;4952509;28;20107;-78
2021/12/20 08:01:36;;;;;;;0.05;0.05;;;1.80;99.90;;;-0.09;100.00;101472.66;4954503;28;20028;-77
2021/12/20 08:04:03;;;;;;;4.65;0.30;;;1.90;99.90;;;0.10;100.00;101473.69;4906148;28;20040;-76
2021/12/20 08:06:30;;;;;;;0.15;0.03;;;2.00;99.90;;;0.24;100.00;101467.75;4925340;28;20070;-76
2021/12/20 08:08:56;;;;;;;1.40;0.22;;;2.10;99.90;;;0.24;100.00;101460.88;4949397;28;20102;-78
2021/12/20 08:11:22;;;;;;;0.00;0.00;;;2.10;99.90;;;0.22;100.00;101452.22;4924564;28;20042;-77
2021/12/20 08:13:48;;;;;;;0.15;0.10;;;2.10;99.90;;;0.22;100.00;101456.50;4946048;28;20028;-77
2021/12/20 08:16:16;;;;;;;0.03;0.00;;;2.10;99.90;;;0.24;100.00;101455.69;4946825;28;20043;-77
2021/12/20 08:18:46;;;;;;;1.45;0.20;;;2.10;99.90;;;0.14;100.00;101446.09;4928925;28;20499;-77
2021/12/20 08:21:15;;;;;;;0.90;0.47;;;2.00;99.90;;;0.12;100.00;101450.41;4915709;28;20035;-78
2021/12/20 08:23:43;;;;;;;3.15;1.17;;;2.10;99.90;;;0.16;100.00;101452.16;4928256;28;20569;-77
2021/12/20 08:26:10;;;;;;;0.30;0.13;;;2.00;99.90;;;-0.01;100.00;101449.44;4927651;28;20044;-77
2021/12/20 08:28:38;;;;;;;2.67;0.28;;;1.90;99.90;;;-0.14;100.00;101443.28;4957808;28;20031;-76
2021/12/20 08:31:07;;;;;;;0.93;0.15;;;1.90;99.90;;;-0.08;100.00;101455.44;4947615;28;20082;-77
2021/12/20 08:33:33;;;;;;;3.25;0.17;;;;;;;-0.09;100.00;101451.09;4948102;28;20507;-77
2021/12/20 08:36:11;;;;;;;0.43;0.10;;;1.90;99.90;;;-0.01;100.00;101457.19;4949322;28;20047;-76
2021/12/20 08:38:41;;;;;;;0.68;0.13;;;1.90;99.90;;;-0.02;100.00;101448.56;4949943;28;20377;-76
2021/12/20 08:41:11;;;;;;;1.67;0.38;;;1.90;99.90;;;0.05;100.00;101459.84;4933415;28;20028;-77
2021/12/20 08:43:39;;;;;;;2.53;0.50;;;2.00;99.90;;;0.08;100.00;101459.00;4953941;28;20440;-77
2021/12/20 08:46:05;;;;;;;7.03;0.25;;;2.00;99.90;;;0.15;100.00;101460.78;4913817;28;20522;-77
2021/12/20 08:48:33;;;;;;;3.72;0.13;;;2.10;99.90;;;0.16;100.00;101471.16;4937921;28;20392;-77
2021/12/20 08:51:01;;;;;;;1.15;0.30;;;2.10;99.90;;;0.17;100.00;101475.50;4945528;28;20072;-77
2021/12/20 08:53:28;;;;;;;0.00;0.00;;;2.10;99.90;;;0.33;100.00;101485.97;4911762;28;20043;-77
2021/12/20 08:55:54;;;;;;;0.10;0.10;;;2.20;99.90;;;0.34;100.00;101485.09;4949540;28;20070;-76
2021/12/20 08:58:21;;;;;;;3.35;0.35;;;2.20;99.90;;;0.31;100.00;101478.19;4954049;28;20115;-78
2021/12/20 09:00:48;;;;;;;2.30;0.32;;;2.20;99.90;;;0.28;100.00;101488.53;4954628;28;20035;-77
2021/12/20 09:03:14;;;;;;;0.65;0.20;;;2.20;99.90;;;0.36;100.00;101492.03;4928723;28;20062;-78
2021/12/20 09:05:43;;;;;;;2.30;0.30;;;2.30;99.90;;;0.50;100.00;101492.16;4931233;28;20575;-77
2021/12/20 09:08:12;;;;;;;0.98;0.20;;;2.40;99.90;;;0.58;100.00;101499.97;4947025;28;20049;-76
2021/12/20 09:10:38;;;;;;;0.05;0.00;;;2.40;99.90;;;0.53;100.00;101507.72;4923088;28;20039;-77
2021/12/20 09:13:05;;;;;;;0.50;0.10;;;2.40;99.90;;;0.55;100.00;101499.94;4967600;28;20110;-77
2021/12/20 09:15:37;;;;;;;3.00;0.20;;;2.40;99.90;;;0.66;100.00;101506.06;4945164;28;20400;-78
2021/12/20 09:18:08;;;;;;;2.85;0.17;;;2.50;99.90;;;0.79;100.00;101517.38;4952870;28;20031;-76
2021/12/20 09:20:36;;;;;;;0.45;0.30;;;2.60;99.90;;;0.72;100.00;101508.72;4949108;28;20082;-77
2021/12/20 09:23:05;;;;;;;0.95;0.20;;;2.60;99.90;;;0.76;100.00;101505.28;4953562;28;20030;-77
2021/12/20 09:25:43;;;;;;;0.50;0.10;;;2.60;99.90;;;0.79;100.00;101515.66;4936134;28;20054;-77
2021/12/20 09:28:14;;;;;;;6.18;0.25;;;2.60;99.90;;;0.79;100.00;101518.25;4929435;28;20023;-76
2021/12/20 09:30:49;;;;;;;0.60;0.20;;;2.60;99.90;;;0.89;100.00;101526.97;4945762;28;20041;-77
2021/12/20 09:33:15;;;;;;;1.05;0.30;;;2.70;99.90;;;0.89;100.00;101524.38;4913082;28;20043;-78
2021/12/20 09:35:42;;;;;;;0.73;0.20;;;2.80;99.90;;;1.06;100.00;101526.19;4912502;28;20023;-80
2021/12/20 09:38:20;;;;;;;0.20;0.20;;;2.90;99.90;;;1.19;100.00;101528.00;4914816;28;20399;-79
2021/12/20 09:41:13;;;;;;;2.72;0.22;;;3.00;99.90;;;1.14;100.00;101514.13;4901197;28;20025;-78
2021/12/20 09:43:49;;;;;;;1.15;0.22;;;3.00;99.90;;;1.19;100.00;101526.25;4926868;28;20046;-78
2021/12/20 09:46:24;;;;;;;0.30;0.17;;;3.00;99.90;;;1.23;100.00;101530.63;4930887;28;20058;-78
2021/12/20 09:48:53;;;;;;;1.50;0.22;;;3.10;99.90;;;1.32;100.00;101540.16;4919113;28;20035;-79
2021/12/20 09:51:22;;;;;;;0.10;0.00;;;3.10;99.90;;;1.37;100.00;101545.38;4942913;28;20031;-78
2021/12/20 09:53:56;;;;;;;2.40;0.10;;;3.20;99.90;;;1.43;100.00;101543.66;4946151;28;20039;-77
2021/12/20 09:56:25;;;;;;;1.70;0.20;;;3.30;99.90;;;1.45;100.00;101546.28;4921427;28;20036;-79
2021/12/20 09:59:04;;;;;;;3.47;0.35;;;3.30;99.90;;;1.90;100.00;101564.56;4940153;28;20039;-79
2021/12/20 10:01:33;;;;;;;1.00;0.20;;;3.80;99.90;;;2.72;100.00;101601.94;4942552;28;20102;-79
2021/12/20 10:04:04;;;;;;;11.43;0.50;;;4.50;99.90;;;3.82;100.00;101625.13;4941664;28;20127;-79
2021/12/20 10:06:30;;;;;;;0.17;0.10;;;4.90;99.90;;;3.71;99.84;101611.25;4931677;28;20047;-78
2021/12/20 10:09:03;;;;;;;0.03;0.00;;;5.00;99.90;;;3.09;98.19;101579.38;4914083;28;20036;-78
2021/12/20 10:11:33;;;;;;;3.63;0.20;;;4.90;99.90;;;3.18;97.54;101581.94;4913399;28;20030;-77
2021/12/20 10:14:17;;;;;;;1.70;0.20;;;4.70;99.90;;;2.90;98.95;101588.94;4928691;28;20088;-79
2021/12/20 10:16:45;;;;;;;4.82;0.28;;;4.50;99.90;;;2.43;99.22;101567.25;4925432;28;20032;-79
2021/12/20 10:19:36;;;;;;;0.82;0.10;;;4.40;99.90;;;2.35;100.00;101573.31;4932376;28;20032;-77
2021/12/20 10:22:30;;;;;;;0.35;0.13;;;4.30;99.90;;;2.22;100.00;101581.09;4944466;28;20082;-78
2021/12/20 10:25:21;;;;;;;1.83;0.17;;;4.20;99.90;;;2.34;100.00;101592.41;4920844;28;20065;-77
2021/12/20 10:27:48;;;;;;;1.25;0.47;;;4.10;99.90;;;2.23;100.00;101590.63;4887933;28;20074;-78
2021/12/20 10:30:52;;;;;;;1.02;0.30;;;4.00;99.90;;;2.03;100.00;101585.41;4915507;28;20023;-76
2021/12/20 10:33:28;;;;;;;0.30;0.20;;;3.90;99.90;;;2.02;100.00;101585.41;4924064;28;20087;-76
2021/12/20 10:36:08;;;;;;;1.65;0.28;;;3.80;99.90;;;2.12;100.00;101594.97;4946087;28;21037;-79
2021/12/20 10:38:48;;;;;;;0.65;0.35;;;3.90;99.90;;;2.10;100.00;101581.09;4936700;28;20058;-77
2021/12/20 10:41:33;;;;;;;0.90;0.00;;;3.90;99.90;;;2.12;100.00;101576.78;4908402;28;20054;-78